Time;durP1;ratioP1;P1;durP2;ratioP2;P2;SDS_P1;SDS_P2;PMS_P1;PMS_P2;Temp;Humidity;BMP_temperature;BMP_pressure;BME280_temperature;BME280_humidity;BME280_pressure;Samples;Min_cycle;Max_cycle;Signal;HPM_P1;HPM_P2
2022/07/06 00:00:35;;;;;;;60.13;4.00;;;;;;;;;;5094448;28;21000;-67
2022/07/06 00:03:03;;;;;;;61.30;4.20;;;;;;;;;;5094534;28;20473;-67
2022/07/06 00:05:31;;;;;;;61.40;4.90;;;;;;;;;;5094468;28;20559;-67
2022/07/06 00:07:58;;;;;;;62.27;5.00;;;;;;;;;;5092890;28;20444;-67
2022/07/06 00:10:29;;;;;;;60.30;3.80;;;;;;;;;;5094334;28;20448;-67
2022/07/06 00:12:56;;;;;;;59.60;3.83;;;;;;;;;;5093990;28;20466;-67
2022/07/06 00:15:24;;;;;;;60.40;4.50;;;;;;;;;;5093921;28;20445;-67
2022/07/06 00:17:51;;;;;;;60.97;4.70;;;;;;;;;;5094022;28;20489;-67
2022/07/06 00:20:18;;;;;;;60.43;4.30;;;;;;;;;;5093914;28;20457;-67
2022/07/06 00:22:46;;;;;;;61.10;5.00;;;;;;;;;;5094045;28;20443;-67
2022/07/06 00:25:13;;;;;;;60.33;4.47;;;;;;;;;;5093869;28;20978;-67
2022/07/06 00:27:42;;;;;;;61.13;4.53;;;;;;;;;;5093698;28;20449;-67
2022/07/06 00:30:09;;;;;;;64.27;4.27;;;;;;;;;;5094004;28;20455;-67
2022/07/06 00:32:37;;;;;;;60.37;4.73;;;;;;;;;;5093893;28;20536;-67
2022/07/06 00:35:05;;;;;;;59.90;4.00;;;;;;;;;;5093827;28;20506;-67
2022/07/06 00:37:39;;;;;;;60.90;4.60;;;;;;;;;;5093147;28;20449;-67
2022/07/06 00:40:09;;;;;;;59.43;3.90;;;;;;;;;;5094001;28;20444;-67
2022/07/06 00:42:42;;;;;;;64.90;4.67;;;;;;;;;;5093777;28;20448;-67
2022/07/06 00:45:10;;;;;;;60.60;4.37;;;;;;;;;;5093673;28;20464;-67
2022/07/06 00:47:37;;;;;;;62.33;4.53;;;;;;;;;;5093812;28;20444;-67
2022/07/06 00:52:50;;;;;;;61.70;4.17;;;;;;;;;;5093152;28;20436;-67
2022/07/06 00:55:19;;;;;;;60.10;4.43;;;;;;;;;;5093861;28;20463;-67
2022/07/06 00:57:49;;;;;;;61.07;4.30;;;;;;;;;;5093546;28;20528;-67
2022/07/06 01:00:17;;;;;;;61.00;5.07;;;;;;;;;;5093165;28;20473;-67
2022/07/06 01:02:45;;;;;;;59.27;3.83;;;;;;;;;;5093059;28;20948;-67
2022/07/06 01:05:13;;;;;;;59.80;4.03;;;;;;;;;;5093521;28;20448;-68
2022/07/06 01:07:43;;;;;;;62.43;4.60;;;;;;;;;;5091240;28;20442;-67
2022/07/06 01:10:11;;;;;;;61.23;4.50;;;;;;;;;;5093311;28;20883;-67
2022/07/06 01:12:41;;;;;;;59.93;4.10;;;;;;;;;;5093133;28;20837;-67
2022/07/06 01:15:11;;;;;;;60.17;4.47;;;;;;;;;;5093061;28;20967;-67
2022/07/06 01:17:40;;;;;;;59.90;4.43;;;;;;;;;;5092554;28;20453;-67
2022/07/06 01:20:11;;;;;;;59.60;3.93;;;;;;;;;;5093210;28;20447;-67
2022/07/06 01:22:38;;;;;;;63.07;4.90;;;;;;;;;;5091584;28;20457;-67
2022/07/06 01:25:06;;;;;;;60.10;4.20;;;;;;;;;;5092959;28;20534;-67
2022/07/06 01:27:36;;;;;;;60.23;4.67;;;;;;;;;;5092666;28;20451;-67
2022/07/06 01:30:04;;;;;;;60.40;4.70;;;;;;;;;;5092878;28;20542;-66
2022/07/06 01:32:32;;;;;;;60.93;4.80;;;;;;;;;;5092389;28;20484;-66
2022/07/06 01:35:00;;;;;;;60.20;4.50;;;;;;;;;;5092687;28;20466;-66
2022/07/06 01:37:28;;;;;;;61.20;4.83;;;;;;;;;;5092521;28;20480;-66
2022/07/06 01:39:59;;;;;;;63.03;4.23;;;;;;;;;;5091299;28;20575;-66
2022/07/06 01:42:28;;;;;;;60.07;4.03;;;;;;;;;;5092478;28;20942;-66
2022/07/06 01:44:56;;;;;;;59.90;4.30;;;;;;;;;;5092646;28;20890;-67
2022/07/06 01:47:24;;;;;;;60.90;4.40;;;;;;;;;;5092494;28;20485;-66
2022/07/06 01:49:51;;;;;;;60.50;4.87;;;;;;;;;;5091211;28;20957;-67
2022/07/06 01:52:19;;;;;;;60.20;4.03;;;;;;;;;;5091948;28;20455;-67
2022/07/06 01:54:47;;;;;;;59.80;4.13;;;;;;;;;;5092322;28;20469;-66
2022/07/06 01:57:15;;;;;;;59.70;4.13;;;;;;;;;;5092233;28;20486;-66
2022/07/06 01:59:42;;;;;;;60.20;4.17;;;;;;;;;;5092488;28;20485;-67
2022/07/06 02:02:10;;;;;;;59.70;4.20;;;;;;;;;;5092330;28;20493;-66
2022/07/06 02:04:39;;;;;;;61.50;4.40;;;;;;;;;;5091678;28;20967;-67
2022/07/06 02:07:06;;;;;;;60.20;4.40;;;;;;;;;;5092195;28;20530;-66
2022/07/06 02:09:35;;;;;;;59.50;3.77;;;;;;;;;;5091887;28;20451;-66
2022/07/06 02:12:07;;;;;;;59.80;3.87;;;;;;;;;;5092377;28;20452;-67
2022/07/06 02:14:35;;;;;;;59.60;4.10;;;;;;;;;;5090663;28;20476;-67
2022/07/06 02:17:03;;;;;;;61.37;4.13;;;;;;;;;;5091747;28;20978;-66
2022/07/06 02:19:30;;;;;;;59.57;3.77;;;;;;;;;;5091855;28;20474;-66
2022/07/06 02:21:58;;;;;;;60.00;3.80;;;;;;;;;;5091941;28;20891;-66
2022/07/06 02:24:25;;;;;;;60.17;4.60;;;;;;;;;;5091662;28;20470;-67
2022/07/06 02:26:53;;;;;;;59.30;4.10;;;;;;;;;;5091827;28;20458;-66
2022/07/06 02:29:22;;;;;;;59.60;4.20;;;;;;;;;;5091763;28;20438;-66
2022/07/06 02:31:49;;;;;;;61.40;4.47;;;;;;;;;;5090090;28;20459;-67
2022/07/06 02:34:17;;;;;;;59.23;4.17;;;;;;;;;;5091534;28;20561;-67
2022/07/06 02:36:44;;;;;;;60.10;4.60;;;;;;;;;;5091775;28;20474;-66
2022/07/06 02:39:11;;;;;;;59.47;4.20;;;;;;;;;;5091628;28;20478;-66
2022/07/06 02:41:38;;;;;;;59.70;4.20;;;;;;;;;;5091828;28;20457;-66
2022/07/06 02:44:05;;;;;;;61.40;4.77;;;;;;;;;;5091762;28;20474;-66
2022/07/06 02:46:34;;;;;;;60.87;4.27;;;;;;;;;;5091703;28;20457;-67
2022/07/06 02:49:01;;;;;;;60.00;4.33;;;;;;;;;;5091071;28;20814;-67
2022/07/06 02:51:30;;;;;;;60.80;4.27;;;;;;;;;;5091641;28;20442;-67
2022/07/06 02:53:57;;;;;;;59.70;4.23;;;;;;;;;;5091636;28;20472;-67
2022/07/06 02:56:28;;;;;;;60.40;4.07;;;;;;;;;;5091762;28;20489;-67
2022/07/06 02:58:55;;;;;;;59.30;4.13;;;;;;;;;;5091308;28;20481;-67
2022/07/06 03:01:24;;;;;;;61.30;4.60;;;;;;;;;;5091602;28;20503;-67
2022/07/06 03:03:54;;;;;;;60.40;4.73;;;;;;;;;;5091796;28;20463;-67
2022/07/06 03:06:21;;;;;;;59.70;4.27;;;;;;;;;;5090623;28;20450;-67
2022/07/06 03:08:48;;;;;;;59.83;3.80;;;;;;;;;;5090932;28;20479;-67
2022/07/06 03:11:15;;;;;;;60.00;4.00;;;;;;;;;;5090202;28;20478;-66
2022/07/06 03:13:43;;;;;;;59.90;4.27;;;;;;;;;;5091335;28;20984;-67
2022/07/06 03:16:10;;;;;;;60.03;4.20;;;;;;;;;;5091685;28;20464;-67
2022/07/06 03:18:37;;;;;;;61.30;4.43;;;;;;;;;;5095367;28;20443;-67
2022/07/06 03:21:07;;;;;;;60.27;4.00;;;;;;;;;;5095437;28;20446;-67
2022/07/06 03:23:34;;;;;;;59.50;3.90;;;;;;;;;;5095582;28;20515;-66
2022/07/06 03:26:02;;;;;;;63.17;4.10;;;;;;;;;;5094845;28;20554;-66
2022/07/06 03:28:30;;;;;;;59.40;4.17;;;;;;;;;;5094939;28;20457;-67
2022/07/06 03:30:57;;;;;;;60.40;4.40;;;;;;;;;;5095113;28;20443;-66
2022/07/06 03:33:25;;;;;;;60.13;3.80;;;;;;;;;;5095036;28;20479;-67
2022/07/06 03:35:52;;;;;;;60.57;4.90;;;;;;;;;;5095234;28;20928;-67
2022/07/06 03:38:21;;;;;;;62.70;5.27;;;;;;;;;;5094891;28;20826;-66
2022/07/06 03:40:48;;;;;;;61.07;5.20;;;;;;;;;;5095067;28;20447;-67
2022/07/06 03:43:15;;;;;;;60.77;4.80;;;;;;;;;;5094771;28;21005;-67
2022/07/06 03:45:44;;;;;;;60.57;4.80;;;;;;;;;;5095027;28;20837;-66
2022/07/06 03:48:12;;;;;;;60.60;4.53;;;;;;;;;;5094785;28;20445;-67
2022/07/06 03:50:41;;;;;;;60.23;4.27;;;;;;;;;;5094685;28;20545;-67
2022/07/06 03:53:16;;;;;;;60.20;4.70;;;;;;;;;;5094523;28;20463;-67
2022/07/06 03:56:27;;;;;;;60.13;4.63;;;;;;;;;;5094407;28;20449;-67
2022/07/06 03:58:35;;;;;;;60.17;4.23;;;;;;;;;;5094115;28;20455;-66
2022/07/06 04:01:04;;;;;;;60.30;4.57;;;;;;;;;;5094324;28;20941;-67
2022/07/06 04:03:34;;;;;;;59.67;4.30;;;;;;;;;;5094356;28;20470;-67
2022/07/06 04:06:01;;;;;;;60.20;3.97;;;;;;;;;;5094323;28;20446;-67
2022/07/06 04:08:28;;;;;;;62.57;4.23;;;;;;;;;;5093816;28;20500;-67
2022/07/06 04:10:57;;;;;;;60.27;4.10;;;;;;;;;;5094412;28;20452;-67
2022/07/06 04:13:25;;;;;;;61.73;4.10;;;;;;;;;;5094408;28;20471;-67
2022/07/06 04:15:52;;;;;;;72.10;4.50;;;;;;;;;;5094498;28;20533;-67
2022/07/06 04:18:20;;;;;;;60.77;4.70;;;;;;;;;;5093927;28;20998;-67
2022/07/06 04:20:47;;;;;;;59.97;5.30;;;;;;;;;;5094030;28;20453;-67
2022/07/06 04:23:15;;;;;;;59.40;4.17;;;;;;;;;;5092744;28;20468;-69
2022/07/06 04:25:42;;;;;;;62.37;4.40;;;;;;;;;;5094357;28;20486;-66
2022/07/06 04:28:18;;;;;;;60.53;4.40;;;;;;;;;;5093620;28;20480;-66
2022/07/06 04:30:46;;;;;;;59.00;4.17;;;;;;;;;;5093977;28;20481;-66
2022/07/06 04:33:13;;;;;;;69.07;4.63;;;;;;;;;;5093769;28;20467;-67
2022/07/06 04:35:41;;;;;;;65.27;4.40;;;;;;;;;;5093953;28;20469;-67
2022/07/06 04:38:08;;;;;;;60.47;4.37;;;;;;;;;;5093618;28;20462;-67
2022/07/06 04:40:38;;;;;;;60.90;4.00;;;;;;;;;;5094053;28;20545;-67
2022/07/06 04:43:06;;;;;;;59.80;4.17;;;;;;;;;;5093706;28;20987;-67
2022/07/06 04:45:35;;;;;;;60.07;4.37;;;;;;;;;;5093774;28;20487;-66
2022/07/06 04:48:03;;;;;;;60.00;4.13;;;;;;;;;;5093312;28;20504;-66
2022/07/06 04:50:31;;;;;;;59.67;4.43;;;;;;;;;;5093792;28;20595;-66
2022/07/06 04:52:59;;;;;;;61.07;4.60;;;;;;;;;;5093644;28;20885;-66
2022/07/06 04:55:26;;;;;;;60.37;4.70;;;;;;;;;;5093622;28;20459;-66
2022/07/06 04:57:53;;;;;;;60.40;4.33;;;;;;;;;;5093304;28;20463;-66
2022/07/06 05:00:21;;;;;;;60.30;4.70;;;;;;;;;;5092966;28;20451;-68
2022/07/06 05:02:50;;;;;;;59.60;4.20;;;;;;;;;;5093315;28;20454;-67
2022/07/06 05:05:19;;;;;;;60.33;4.30;;;;;;;;;;5093520;28;20459;-67
2022/07/06 05:07:46;;;;;;;59.50;4.07;;;;;;;;;;5092976;28;20934;-67
2022/07/06 05:10:13;;;;;;;62.33;4.30;;;;;;;;;;5093271;28;20490;-67
2022/07/06 05:12:41;;;;;;;59.43;3.90;;;;;;;;;;5093106;28;20433;-67
2022/07/06 05:15:09;;;;;;;59.80;4.40;;;;;;;;;;5093147;28;20449;-67
2022/07/06 05:17:37;;;;;;;60.47;4.53;;;;;;;;;;5093056;28;20926;-67
2022/07/06 05:20:10;;;;;;;59.90;4.27;;;;;;;;;;5093298;28;20444;-67
2022/07/06 05:22:37;;;;;;;60.07;4.43;;;;;;;;;;5093041;28;20424;-67
2022/07/06 05:25:05;;;;;;;61.70;4.40;;;;;;;;;;5093108;28;20906;-67
2022/07/06 05:27:32;;;;;;;60.60;3.97;;;;;;;;;;5092824;28;20828;-67
2022/07/06 05:30:00;;;;;;;59.40;4.23;;;;;;;;;;5092717;28;20482;-67
2022/07/06 05:32:28;;;;;;;59.87;4.70;;;;;;;;;;5091113;28;20456;-67
2022/07/06 05:34:57;;;;;;;60.40;4.63;;;;;;;;;;5092699;28;20852;-67
2022/07/06 05:37:26;;;;;;;59.87;4.20;;;;;;;;;;5092455;28;20981;-67
2022/07/06 05:39:53;;;;;;;60.67;4.40;;;;;;;;;;5092604;28;20457;-67
2022/07/06 05:42:21;;;;;;;60.27;4.90;;;;;;;;;;5092583;28;20439;-67
2022/07/06 05:44:49;;;;;;;59.40;3.90;;;;;;;;;;5092710;28;20495;-65
2022/07/06 05:50:13;;;;;;;63.50;5.17;;;;;;;;;;5092595;28;20474;-65
2022/07/06 05:52:42;;;;;;;59.67;4.57;;;;;;;;;;5092223;28;20457;-65
2022/07/06 05:55:10;;;;;;;59.10;4.33;;;;;;;;;;5092645;28;20505;-65
2022/07/06 05:57:38;;;;;;;60.07;4.30;;;;;;;;;;5092297;28;20446;-65
2022/07/06 06:00:05;;;;;;;60.33;4.50;;;;;;;;;;5092383;28;20438;-65
2022/07/06 06:02:40;;;;;;;60.20;4.23;;;;;;;;;;5092117;28;20442;-65
2022/07/06 06:05:09;;;;;;;59.47;3.87;;;;;;;;;;5092104;28;20452;-65
2022/07/06 06:07:36;;;;;;;60.40;5.03;;;;;;;;;;5091706;28;20448;-65
2022/07/06 06:10:06;;;;;;;61.23;4.70;;;;;;;;;;5092320;28;20482;-66
2022/07/06 06:12:35;;;;;;;58.97;3.77;;;;;;;;;;5090842;28;20457;-65
2022/07/06 06:15:04;;;;;;;60.37;4.07;;;;;;;;;;5092186;28;20443;-65
2022/07/06 06:17:31;;;;;;;60.47;4.40;;;;;;;;;;5092232;28;20442;-66
2022/07/06 06:19:59;;;;;;;61.50;3.97;;;;;;;;;;5092275;28;20446;-66
2022/07/06 06:22:26;;;;;;;59.60;4.30;;;;;;;;;;5091781;28;20446;-66
2022/07/06 06:24:54;;;;;;;61.57;4.37;;;;;;;;;;5091941;28;20462;-66
2022/07/06 06:27:24;;;;;;;59.70;4.30;;;;;;;;;;5091444;28;20445;-66
2022/07/06 06:29:52;;;;;;;58.70;3.97;;;;;;;;;;5091836;28;20477;-66
2022/07/06 06:32:19;;;;;;;59.77;3.67;;;;;;;;;;5090445;28;20451;-66
2022/07/06 06:34:46;;;;;;;59.60;3.67;;;;;;;;;;5091930;28;20512;-66
2022/07/06 06:37:14;;;;;;;61.40;4.10;;;;;;;;;;5091772;28;20451;-66
2022/07/06 06:39:42;;;;;;;59.77;3.97;;;;;;;;;;5091707;28;20485;-66
2022/07/06 06:42:12;;;;;;;67.40;4.33;;;;;;;;;;5091785;28;20877;-66
2022/07/06 06:44:41;;;;;;;59.30;3.90;;;;;;;;;;5091655;28;20465;-66
2022/07/06 06:47:12;;;;;;;58.90;3.97;;;;;;;;;;5091544;28;20444;-66
2022/07/06 06:49:39;;;;;;;60.37;4.40;;;;;;;;;;5091597;28;21020;-66
2022/07/06 06:52:06;;;;;;;60.20;4.20;;;;;;;;;;5095457;28;20446;-66
2022/07/06 06:54:36;;;;;;;61.00;4.07;;;;;;;;;;5095856;28;20841;-66
2022/07/06 06:57:03;;;;;;;61.60;4.63;;;;;;;;;;5095707;28;20427;-66
2022/07/06 06:59:31;;;;;;;59.10;3.03;;;;;;;;;;5095906;28;20643;-66
2022/07/06 07:01:59;;;;;;;59.60;4.00;;;;;;;;;;5095814;28;20824;-66
2022/07/06 07:04:29;;;;;;;60.63;3.73;;;;;;;;;;5095873;28;20828;-66
2022/07/06 07:06:56;;;;;;;59.20;3.90;;;;;;;;;;5095256;28;20451;-66
2022/07/06 07:09:23;;;;;;;59.70;3.57;;;;;;;;;;5095424;28;20950;-66
2022/07/06 07:11:51;;;;;;;59.57;3.97;;;;;;;;;;5095523;28;20438;-66
2022/07/06 07:14:18;;;;;;;59.80;3.90;;;;;;;;;;5095572;28;20466;-66
2022/07/06 07:16:46;;;;;;;65.40;3.60;;;;;;;;;;5095247;28;20985;-66
2022/07/06 07:19:14;;;;;;;58.70;3.60;;;;;;;;;;5093969;28;20449;-67
2022/07/06 07:21:44;;;;;;;60.27;3.90;;;;;;;;;;5095410;28;20972;-66
2022/07/06 07:24:13;;;;;;;60.00;4.03;;;;;;;;;;5095280;28;20467;-67
2022/07/06 07:26:40;;;;;;;60.60;3.43;;;;;;;;;;5095272;28;20515;-67
2022/07/06 07:29:08;;;;;;;59.50;3.50;;;;;;;;;;5094896;28;20446;-67
2022/07/06 07:31:35;;;;;;;58.80;3.67;;;;;;;;;;5095094;28;20481;-67
2022/07/06 07:34:02;;;;;;;59.40;3.53;;;;;;;;;;5095143;28;20526;-66
2022/07/06 07:36:31;;;;;;;59.00;3.73;;;;;;;;;;5095142;28;20453;-66
2022/07/06 07:38:59;;;;;;;59.70;3.70;;;;;;;;;;5094796;28;20452;-67
2022/07/06 07:41:26;;;;;;;63.53;4.10;;;;;;;;;;5095240;28;20442;-66
2022/07/06 07:43:54;;;;;;;59.50;3.53;;;;;;;;;;5094829;28;20466;-66
2022/07/06 07:46:21;;;;;;;60.37;3.60;;;;;;;;;;5095124;28;20446;-67
2022/07/06 07:48:49;;;;;;;59.70;3.73;;;;;;;;;;5094691;28;20461;-67
2022/07/06 07:51:16;;;;;;;63.20;4.00;;;;;;;;;;5094804;28;20477;-67
2022/07/06 07:53:45;;;;;;;59.40;3.87;;;;;;;;;;5094771;28;20523;-66
2022/07/06 07:56:12;;;;;;;62.17;3.70;;;;;;;;;;5094899;28;20442;-66
2022/07/06 07:58:39;;;;;;;58.57;3.80;;;;;;;;;;5094556;28;20468;-66
2022/07/06 08:01:07;;;;;;;58.67;3.67;;;;;;;;;;5094491;28;20442;-69
2022/07/06 08:03:34;;;;;;;60.70;3.70;;;;;;;;;;5091307;28;20470;-67
2022/07/06 08:06:01;;;;;;;66.53;4.73;;;;;;;;;;5092028;28;20449;-68
2022/07/06 08:08:29;;;;;;;62.57;3.87;;;;;;;;;;5092663;28;20947;-67
2022/07/06 08:10:58;;;;;;;61.60;4.20;;;;;;;;;;5091289;28;20490;-67
2022/07/06 08:13:25;;;;;;;60.40;4.40;;;;;;;;;;5092243;28;20474;-67
2022/07/06 08:15:52;;;;;;;60.07;3.93;;;;;;;;;;5092429;28;20450;-67
2022/07/06 08:18:21;;;;;;;58.90;3.67;;;;;;;;;;5093175;28;20798;-67
2022/07/06 08:20:52;;;;;;;59.90;3.90;;;;;;;;;;5092735;28;20915;-68
2022/07/06 08:23:20;;;;;;;67.07;5.73;;;;;;;;;;5092757;28;20521;-67
2022/07/06 08:25:50;;;;;;;58.27;3.87;;;;;;;;;;5093241;28;20458;-67
2022/07/06 08:28:18;;;;;;;60.83;3.67;;;;;;;;;;5093034;28;20453;-67
2022/07/06 08:30:45;;;;;;;59.37;3.77;;;;;;;;;;5093114;28;20857;-67
2022/07/06 08:33:14;;;;;;;58.30;3.17;;;;;;;;;;5092824;28;20473;-67
2022/07/06 08:35:43;;;;;;;59.50;3.80;;;;;;;;;;5093214;28;20447;-67
2022/07/06 08:38:12;;;;;;;59.50;3.90;;;;;;;;;;5091453;28;20541;-67
2022/07/06 08:40:40;;;;;;;59.07;3.67;;;;;;;;;;5092577;28;20446;-67
2022/07/06 08:43:07;;;;;;;59.47;3.90;;;;;;;;;;5092843;28;20476;-67
2022/07/06 08:45:40;;;;;;;59.30;3.50;;;;;;;;;;5092681;28;20473;-67
2022/07/06 08:48:07;;;;;;;60.50;3.87;;;;;;;;;;5092938;28;20508;-67
2022/07/06 08:50:36;;;;;;;59.47;3.80;;;;;;;;;;5093119;28;20855;-67
2022/07/06 08:53:03;;;;;;;59.77;3.87;;;;;;;;;;5093188;28;20471;-67
2022/07/06 08:55:32;;;;;;;60.10;4.40;;;;;;;;;;5092641;28;20456;-67
2022/07/06 08:58:01;;;;;;;59.47;4.23;;;;;;;;;;5091070;28;20447;-67
2022/07/06 09:00:28;;;;;;;61.00;4.10;;;;;;;;;;5090836;28;20454;-67
2022/07/06 09:02:58;;;;;;;61.03;4.40;;;;;;;;;;5087683;28;20467;-67
2022/07/06 09:05:26;;;;;;;59.23;3.67;;;;;;;;;;5092597;28;20449;-68
2022/07/06 09:07:54;;;;;;;59.53;3.73;;;;;;;;;;5080342;28;21065;-67
2022/07/06 09:10:23;;;;;;;58.73;3.50;;;;;;;;;;5077190;28;20482;-68
2022/07/06 09:12:51;;;;;;;59.20;3.37;;;;;;;;;;5092177;28;20450;-67
2022/07/06 09:15:19;;;;;;;59.93;4.23;;;;;;;;;;5091244;28;20590;-68
2022/07/06 09:17:47;;;;;;;60.37;3.90;;;;;;;;;;5092481;28;21004;-67
2022/07/06 09:20:16;;;;;;;62.60;3.80;;;;;;;;;;5092524;28;20478;-67
2022/07/06 09:22:46;;;;;;;59.50;4.07;;;;;;;;;;5091727;28;20450;-68
2022/07/06 09:25:15;;;;;;;61.67;4.10;;;;;;;;;;5092548;28;20462;-68
2022/07/06 09:27:43;;;;;;;60.30;4.23;;;;;;;;;;5092138;28;20800;-68
2022/07/06 09:30:11;;;;;;;59.67;3.93;;;;;;;;;;5092511;28;20454;-67
2022/07/06 09:32:42;;;;;;;62.00;4.50;;;;;;;;;;5092089;28;20468;-68
2022/07/06 09:35:10;;;;;;;59.13;3.77;;;;;;;;;;5092145;28;20516;-67
2022/07/06 09:37:41;;;;;;;59.50;3.40;;;;;;;;;;5091782;28;20450;-68
2022/07/06 09:40:18;;;;;;;59.07;3.20;;;;;;;;;;5092419;28;20448;-65
2022/07/06 09:42:46;;;;;;;62.53;3.67;;;;;;;;;;5090255;28;20491;-68
2022/07/06 09:45:30;;;;;;;59.60;3.93;;;;;;;;;;5091867;28;20936;-68
2022/07/06 09:47:57;;;;;;;58.90;3.37;;;;;;;;;;5089212;28;20522;-68
2022/07/06 09:50:30;;;;;;;58.77;3.40;;;;;;;;;;5091849;28;20450;-68
2022/07/06 09:53:00;;;;;;;58.87;3.20;;;;;;;;;;5091629;28;20462;-68
2022/07/06 09:59:05;;;;;;;60.80;3.60;;;;;;;;;;5091636;28;20443;-68
2022/07/06 10:01:34;;;;;;;58.70;3.50;;;;;;;;;;5089222;28;20453;-68
2022/07/06 10:04:05;;;;;;;59.60;3.70;;;;;;;;;;5091442;28;20451;-68
2022/07/06 10:06:33;;;;;;;59.80;3.60;;;;;;;;;;5089043;28;20537;-68
2022/07/06 10:09:04;;;;;;;59.37;3.37;;;;;;;;;;5088849;28;20443;-68
2022/07/06 10:11:33;;;;;;;58.57;2.90;;;;;;;;;;5085383;28;20526;-68
2022/07/06 10:14:03;;;;;;;59.20;3.67;;;;;;;;;;5071877;28;20503;-68
2022/07/06 10:16:31;;;;;;;58.67;3.23;;;;;;;;;;5070974;28;20455;-68
2022/07/06 10:18:59;;;;;;;58.87;3.00;;;;;;;;;;5070563;28;20456;-68
2022/07/06 10:21:29;;;;;;;58.40;3.27;;;;;;;;;;5069048;28;20447;-68
2022/07/06 10:24:01;;;;;;;60.23;3.50;;;;;;;;;;5070848;28;20475;-68
2022/07/06 10:26:33;;;;;;;58.70;3.17;;;;;;;;;;5070949;28;20537;-68
2022/07/06 10:29:02;;;;;;;58.50;3.00;;;;;;;;;;5071107;28;20527;-68
2022/07/06 10:31:34;;;;;;;59.40;3.67;;;;;;;;;;5070150;28;20486;-66
2022/07/06 10:42:35;;;;;;;59.80;4.00;;;;;;;;;;5070968;28;20475;-66
2022/07/06 10:45:04;;;;;;;59.37;3.40;;;;;;;;;;5070811;28;20454;-66
2022/07/06 10:47:37;;;;;;;59.40;2.73;;;;;;;;;;5089053;28;20522;-66
2022/07/06 10:50:11;;;;;;;58.80;2.80;;;;;;;;;;5091177;28;20453;-66
2022/07/06 10:52:54;;;;;;;58.30;2.73;;;;;;;;;;5069704;28;20467;-66
2022/07/06 10:55:30;;;;;;;59.60;3.43;;;;;;;;;;5071119;28;20902;-66
2022/07/06 10:57:58;;;;;;;59.10;2.70;;;;;;;;;;5070656;28;20500;-66
2022/07/06 11:00:26;;;;;;;58.10;2.83;;;;;;;;;;5071513;28;20451;-66
2022/07/06 11:02:54;;;;;;;59.60;3.10;;;;;;;;;;5069285;28;20948;-66
2022/07/06 11:05:42;;;;;;;58.10;2.70;;;;;;;;;;5070275;28;20913;-66
2022/07/06 11:08:12;;;;;;;58.07;2.97;;;;;;;;;;5070709;28;20451;-66
2022/07/06 11:10:48;;;;;;;58.23;2.90;;;;;;;;;;5071087;28;20483;-66
2022/07/06 11:13:28;;;;;;;60.57;2.93;;;;;;;;;;5070553;28;20475;-66
2022/07/06 11:16:05;;;;;;;58.00;3.00;;;;;;;;;;5070265;28;20459;-67
2022/07/06 11:18:40;;;;;;;58.27;2.83;;;;;;;;;;5080609;28;20555;-66
2022/07/06 11:21:20;;;;;;;58.83;2.60;;;;;;;;;;5091163;28;20461;-66
2022/07/06 11:23:49;;;;;;;59.80;2.67;;;;;;;;;;5091006;28;20474;-66
2022/07/06 11:26:16;;;;;;;58.10;2.83;;;;;;;;;;5088269;28;20560;-66
2022/07/06 11:28:46;;;;;;;58.23;2.87;;;;;;;;;;5089369;28;20453;-66
2022/07/06 11:31:15;;;;;;;59.90;3.17;;;;;;;;;;5090980;28;20523;-66
2022/07/06 11:33:42;;;;;;;59.27;3.10;;;;;;;;;;5090663;28;20470;-66
2022/07/06 11:36:17;;;;;;;59.13;3.37;;;;;;;;;;5090239;28;20458;-66
2022/07/06 11:38:45;;;;;;;58.30;2.80;;;;;;;;;;5093366;28;20514;-66
2022/07/06 11:41:14;;;;;;;59.27;3.27;;;;;;;;;;5094207;28;20522;-66
2022/07/06 11:43:43;;;;;;;59.00;2.80;;;;;;;;;;5094304;28;20474;-67
2022/07/06 11:46:21;;;;;;;59.40;3.40;;;;;;;;;;5094730;28;20828;-67
2022/07/06 11:48:49;;;;;;;58.17;2.77;;;;;;;;;;5094649;28;20450;-67
2022/07/06 11:51:18;;;;;;;64.10;3.00;;;;;;;;;;5087402;28;20493;-67
2022/07/06 11:53:46;;;;;;;60.10;3.20;;;;;;;;;;5093441;28;20485;-67
2022/07/06 11:56:14;;;;;;;57.90;2.70;;;;;;;;;;5093333;28;20545;-67
2022/07/06 11:59:01;;;;;;;58.20;2.60;;;;;;;;;;5093379;28;20450;-67
2022/07/06 12:01:36;;;;;;;60.60;2.93;;;;;;;;;;5011016;28;20442;-67
2022/07/06 12:04:04;;;;;;;58.30;2.80;;;;;;;;;;4995348;28;20560;-67
2022/07/06 12:06:31;;;;;;;58.50;3.30;;;;;;;;;;5011826;28;20449;-67
2022/07/06 12:09:03;;;;;;;58.00;2.90;;;;;;;;;;5011485;28;20956;-67
2022/07/06 12:11:33;;;;;;;59.93;3.13;;;;;;;;;;5009690;28;20576;-67
2022/07/06 12:14:02;;;;;;;57.80;2.57;;;;;;;;;;5009879;28;20481;-67
2022/07/06 12:16:35;;;;;;;58.80;2.90;;;;;;;;;;5010425;28;20454;-67
2022/07/06 12:19:02;;;;;;;61.07;2.80;;;;;;;;;;5010782;28;20446;-67
2022/07/06 12:21:31;;;;;;;58.60;3.30;;;;;;;;;;5014139;28;20970;-67
2022/07/06 12:24:00;;;;;;;58.40;2.90;;;;;;;;;;5031006;28;20969;-67
2022/07/06 12:26:29;;;;;;;60.40;3.40;;;;;;;;;;5080167;28;20449;-67
2022/07/06 12:29:05;;;;;;;58.80;3.00;;;;;;;;;;5092065;28;20454;-67
2022/07/06 12:31:35;;;;;;;60.70;3.10;;;;;;;;;;5091394;28;20547;-67
2022/07/06 12:34:03;;;;;;;59.57;3.20;;;;;;;;;;5093044;28;21090;-67
2022/07/06 12:36:30;;;;;;;59.40;3.20;;;;;;;;;;5091237;28;20453;-67
2022/07/06 12:38:59;;;;;;;59.10;3.23;;;;;;;;;;5092116;28;20529;-67
2022/07/06 12:41:36;;;;;;;59.53;3.30;;;;;;;;;;5086532;28;20549;-67
2022/07/06 12:44:06;;;;;;;59.17;2.90;;;;;;;;;;5088602;28;20554;-67
2022/07/06 12:46:37;;;;;;;59.57;3.40;;;;;;;;;;5079720;28;21012;-67
2022/07/06 12:49:15;;;;;;;59.97;2.87;;;;;;;;;;5091993;28;20526;-67
2022/07/06 12:51:56;;;;;;;59.00;3.30;;;;;;;;;;5093275;28;20528;-67
2022/07/06 12:54:25;;;;;;;58.10;2.90;;;;;;;;;;5092656;28;20458;-67
2022/07/06 12:57:07;;;;;;;61.73;3.60;;;;;;;;;;5093613;28;20443;-67
2022/07/06 12:59:37;;;;;;;58.97;3.07;;;;;;;;;;5093421;28;20465;-67
2022/07/06 13:02:06;;;;;;;59.20;3.20;;;;;;;;;;5091557;28;20938;-67
2022/07/06 13:04:34;;;;;;;60.50;3.27;;;;;;;;;;5093184;28;20470;-67
2022/07/06 13:07:01;;;;;;;59.27;2.83;;;;;;;;;;5093128;28;20450;-67
2022/07/06 13:09:29;;;;;;;60.37;3.67;;;;;;;;;;5093022;28;20955;-67
2022/07/06 13:11:58;;;;;;;58.67;3.40;;;;;;;;;;5093181;28;20555;-67
2022/07/06 13:14:26;;;;;;;58.37;2.87;;;;;;;;;;5093110;28;20809;-67
2022/07/06 13:16:56;;;;;;;59.30;2.70;;;;;;;;;;5093151;28;20538;-67
2022/07/06 13:19:25;;;;;;;61.77;3.17;;;;;;;;;;5092668;28;20489;-67
2022/07/06 13:21:53;;;;;;;61.23;4.07;;;;;;;;;;5093190;28;20446;-67
2022/07/06 13:24:20;;;;;;;58.37;3.03;;;;;;;;;;5092962;28;20844;-67
2022/07/06 13:26:48;;;;;;;58.57;2.77;;;;;;;;;;5092206;28;20447;-67
2022/07/06 13:29:15;;;;;;;58.53;3.10;;;;;;;;;;5093116;28;20802;-67
2022/07/06 13:31:43;;;;;;;59.00;3.53;;;;;;;;;;5092796;28;20523;-67
2022/07/06 13:34:10;;;;;;;58.77;3.37;;;;;;;;;;5091629;28;20897;-66
2022/07/06 13:36:39;;;;;;;58.10;2.70;;;;;;;;;;5092631;28;20554;-67
2022/07/06 13:39:09;;;;;;;58.20;2.40;;;;;;;;;;5092686;28;20446;-68
2022/07/06 13:41:38;;;;;;;58.33;3.10;;;;;;;;;;5092859;28;20993;-68
2022/07/06 13:44:07;;;;;;;62.57;3.07;;;;;;;;;;5092572;28;20468;-68
2022/07/06 13:46:36;;;;;;;58.50;3.10;;;;;;;;;;5091418;28;20446;-68
2022/07/06 13:49:04;;;;;;;57.80;2.50;;;;;;;;;;5092287;28;20446;-68
2022/07/06 13:51:32;;;;;;;57.80;2.77;;;;;;;;;;5092455;28;20961;-67
2022/07/06 13:54:01;;;;;;;57.60;2.50;;;;;;;;;;5092268;28;20512;-67
2022/07/06 13:56:32;;;;;;;61.17;3.00;;;;;;;;;;5092222;28;20830;-67
2022/07/06 13:59:01;;;;;;;58.27;2.93;;;;;;;;;;5092226;28;20453;-68
2022/07/06 14:01:30;;;;;;;60.67;2.90;;;;;;;;;;5091873;28;20450;-67
2022/07/06 14:03:57;;;;;;;59.17;2.73;;;;;;;;;;5090136;28;20486;-68
2022/07/06 14:06:26;;;;;;;58.43;2.83;;;;;;;;;;5091711;28;20545;-68
2022/07/06 14:08:56;;;;;;;57.80;2.67;;;;;;;;;;5092025;28;20454;-68
2022/07/06 14:11:24;;;;;;;61.77;3.00;;;;;;;;;;5092226;28;20452;-69
2022/07/06 14:13:53;;;;;;;57.70;2.40;;;;;;;;;;5091682;28;20567;-68
2022/07/06 14:16:22;;;;;;;58.00;2.57;;;;;;;;;;5092012;28;20974;-68
2022/07/06 14:18:51;;;;;;;58.10;2.70;;;;;;;;;;5091937;28;20507;-68
2022/07/06 14:21:18;;;;;;;58.00;2.67;;;;;;;;;;5092035;28;20854;-67
2022/07/06 14:23:46;;;;;;;57.90;2.70;;;;;;;;;;5092171;28;20470;-67
2022/07/06 14:26:15;;;;;;;60.00;2.63;;;;;;;;;;5091759;28;20451;-68
2022/07/06 14:28:44;;;;;;;58.40;2.60;;;;;;;;;;5091505;28;20451;-70
2022/07/06 14:31:11;;;;;;;58.20;2.60;;;;;;;;;;5091308;28;20876;-66
2022/07/06 14:33:39;;;;;;;58.50;2.70;;;;;;;;;;5088964;28;20526;-70
2022/07/06 14:36:06;;;;;;;58.90;3.20;;;;;;;;;;5091026;28;20453;-69
2022/07/06 14:38:34;;;;;;;57.27;2.40;;;;;;;;;;5090518;28;20453;-70
2022/07/06 14:41:01;;;;;;;57.80;2.87;;;;;;;;;;5091403;28;20446;-69
2022/07/06 14:43:28;;;;;;;62.50;2.83;;;;;;;;;;5091148;28;20898;-70
2022/07/06 14:45:57;;;;;;;58.30;2.63;;;;;;;;;;5091548;28;20533;-70
2022/07/06 14:48:24;;;;;;;57.60;2.37;;;;;;;;;;5090159;28;20454;-70
2022/07/06 14:50:52;;;;;;;57.87;2.67;;;;;;;;;;5090216;28;20446;-69
2022/07/06 14:53:19;;;;;;;58.00;2.30;;;;;;;;;;5090402;28;20490;-69
2022/07/06 14:55:48;;;;;;;57.70;2.60;;;;;;;;;;5091273;28;20456;-68
2022/07/06 14:58:17;;;;;;;57.53;2.50;;;;;;;;;;5090789;28;20450;-69